createdAt,value
2024-02-15T00:02:13.760Z,4.76
2024-02-15T00:07:15.586Z,4.76
2024-02-15T00:12:17.274Z,4.75
2024-02-15T00:17:19.391Z,4.72
2024-02-15T00:22:22.290Z,4.74
2024-02-15T00:27:23.848Z,4.73
2024-02-15T00:32:25.392Z,4.71
2024-02-15T00:37:27.419Z,4.71
2024-02-15T00:42:28.960Z,4.71
2024-02-15T00:47:30.624Z,4.72
2024-02-15T00:52:32.444Z,4.70
2024-02-15T00:57:34.036Z,4.70
2024-02-15T01:02:36.995Z,4.68
2024-02-15T01:07:38.644Z,4.68
2024-02-15T01:12:40.781Z,4.68
2024-02-15T01:17:42.496Z,4.69
2024-02-15T01:22:45.545Z,4.67
2024-02-15T01:27:48.158Z,4.68
2024-02-15T01:32:49.987Z,4.67
2024-02-15T01:37:51.645Z,4.67
2024-02-15T01:42:53.232Z,4.67
2024-02-15T01:47:55.525Z,4.66
2024-02-15T01:52:58.840Z,4.66
2024-02-15T01:58:02.880Z,4.67
2024-02-15T02:03:06.778Z,4.66
2024-02-15T02:08:10.823Z,4.66
2024-02-15T02:13:12.843Z,4.64
2024-02-15T02:18:14.575Z,4.64
2024-02-15T02:23:19.907Z,4.65
2024-02-15T02:28:22.694Z,4.67
2024-02-15T02:33:26.600Z,4.65
2024-02-15T02:38:28.958Z,4.65
2024-02-15T02:43:30.572Z,4.65
2024-02-15T02:48:32.679Z,4.64
2024-02-15T02:53:34.469Z,4.61
2024-02-15T02:58:36.165Z,4.61
2024-02-15T03:03:39.448Z,4.59
2024-02-15T03:08:41.242Z,4.56
2024-02-15T03:13:45.272Z,4.59
2024-02-15T03:18:47.698Z,4.59
2024-02-15T03:23:49.512Z,4.57
2024-02-15T03:28:51.985Z,4.54
2024-02-15T03:33:54.513Z,4.54
2024-02-15T03:38:57.148Z,4.55
2024-02-15T03:44:00.154Z,4.54
2024-02-15T03:49:02.506Z,4.53
2024-02-15T03:54:05.721Z,4.53
2024-02-15T03:59:08.295Z,4.54
2024-02-15T04:04:10.796Z,4.56
2024-02-15T04:09:13.843Z,4.55
2024-02-15T04:14:15.500Z,4.54
2024-02-15T04:19:17.120Z,4.54
2024-02-15T04:24:18.774Z,4.55
2024-02-15T04:29:23.038Z,4.54
2024-02-15T04:34:24.653Z,4.53
2024-02-15T04:39:28.279Z,4.53
2024-02-15T04:44:29.850Z,4.51
2024-02-15T04:49:31.517Z,4.51
2024-02-15T04:54:33.942Z,4.48
2024-02-15T04:59:36.889Z,4.45
2024-02-15T05:04:38.865Z,4.42
2024-02-15T05:09:40.472Z,4.42
2024-02-15T05:14:44.060Z,4.43
2024-02-15T05:19:46.330Z,4.44
2024-02-15T05:24:48.065Z,4.45
2024-02-15T05:29:49.652Z,4.46
2024-02-15T05:34:51.291Z,4.44
2024-02-15T05:39:55.072Z,4.42
2024-02-15T05:44:56.649Z,4.42
2024-02-15T05:49:58.553Z,4.40
2024-02-15T05:55:00.176Z,4.40
2024-02-15T06:00:13.328Z,4.43
2024-02-15T06:05:23.124Z,4.46
2024-02-15T06:10:24.900Z,4.48
2024-02-15T06:15:27.568Z,4.52
2024-02-15T06:20:31.226Z,4.59
2024-02-15T06:25:33.444Z,4.62
2024-02-15T06:30:53.745Z,4.66
2024-02-15T06:36:13.893Z,4.66
2024-02-15T06:41:15.490Z,4.73
2024-02-15T06:46:17.364Z,4.75
2024-02-15T06:51:19.048Z,4.78
2024-02-15T06:56:21.689Z,4.78
2024-02-15T07:01:26.412Z,4.80
2024-02-15T07:06:29.567Z,4.87
2024-02-15T07:11:34.249Z,4.95
2024-02-15T07:16:35.852Z,5.04
2024-02-15T07:21:39.431Z,5.11
2024-02-15T07:26:40.994Z,5.15
2024-02-15T07:31:42.638Z,5.19
2024-02-15T07:36:44.541Z,5.19
2024-02-15T07:41:46.117Z,5.21
2024-02-15T07:46:49.577Z,5.22
2024-02-15T07:51:54.438Z,5.24
2024-02-15T07:56:56.218Z,5.30
2024-02-15T08:01:59.226Z,5.41
2024-02-15T08:07:00.862Z,5.60
2024-02-15T08:12:05.043Z,5.71
2024-02-15T08:17:09.294Z,5.74
2024-02-15T08:22:10.970Z,5.75
2024-02-15T08:27:12.595Z,5.78
2024-02-15T08:32:15.673Z,5.84
2024-02-15T08:37:17.613Z,5.89
2024-02-15T08:42:26.276Z,5.91
2024-02-15T08:47:28.285Z,5.96
2024-02-15T08:52:29.845Z,6.12
2024-02-15T08:57:32.512Z,6.30
2024-02-15T09:02:34.233Z,6.46
2024-02-15T09:07:37.795Z,6.53
2024-02-15T09:12:41.271Z,6.47
2024-02-15T09:17:44.911Z,6.43
2024-02-15T09:22:50.072Z,6.48
2024-02-15T09:27:52.944Z,6.52
2024-02-15T09:32:54.663Z,6.56
2024-02-15T09:37:57.420Z,6.66
2024-02-15T09:43:01.084Z,6.74
2024-02-15T09:48:08.532Z,6.76
2024-02-15T09:53:10.890Z,6.73
2024-02-15T09:58:13.930Z,6.79
2024-02-15T10:03:21.437Z,6.96
2024-02-15T10:08:24.349Z,7.09
2024-02-15T10:13:25.942Z,7.16
2024-02-15T10:18:27.637Z,7.25
2024-02-15T10:23:29.225Z,7.43
2024-02-15T10:28:31.054Z,7.54
2024-02-15T10:33:33.149Z,7.71
2024-02-15T10:38:35.583Z,7.85
2024-02-15T10:43:42.928Z,7.99
2024-02-15T10:48:48.456Z,8.17
2024-02-15T10:54:04.976Z,8.30
2024-02-15T10:59:14.990Z,8.43
2024-02-15T11:04:22.568Z,8.60
2024-02-15T11:09:26.275Z,8.67
2024-02-15T11:14:33.044Z,8.81
2024-02-15T11:19:41.735Z,8.94
2024-02-15T11:24:55.771Z,8.97
2024-02-15T11:30:16.793Z,9.06
2024-02-15T11:35:19.746Z,9.05
2024-02-15T11:40:30.353Z,9.03
2024-02-15T11:45:35.605Z,9.08
2024-02-15T11:50:38.250Z,9.11
2024-02-15T11:55:41.336Z,9.13
2024-02-15T12:01:02.115Z,9.20
2024-02-15T12:06:22.738Z,9.30
2024-02-15T12:11:43.253Z,9.44
2024-02-15T12:17:03.371Z,9.43
2024-02-15T12:22:06.397Z,9.41
2024-02-15T12:27:08.449Z,9.39
2024-02-15T12:32:10.114Z,9.34
2024-02-15T12:37:12.204Z,9.26
2024-02-15T12:42:13.962Z,9.19
2024-02-15T12:47:26.201Z,9.07
2024-02-15T12:52:40.200Z,8.95
2024-02-15T12:57:44.335Z,8.91
2024-02-15T13:02:48.716Z,8.88
2024-02-15T13:07:51.693Z,8.84
2024-02-15T13:12:54.557Z,8.80
2024-02-15T13:17:56.977Z,8.73
2024-02-15T13:23:02.997Z,8.71
2024-02-15T13:28:05.588Z,8.68
2024-02-15T13:33:07.408Z,8.58
2024-02-15T13:38:16.387Z,8.52
2024-02-15T13:43:18.682Z,8.51
2024-02-15T13:48:20.387Z,8.55
2024-02-15T13:53:25.103Z,8.54
2024-02-15T13:58:27.679Z,8.52
2024-02-15T14:03:30.405Z,8.51
2024-02-15T14:08:32.103Z,8.48
2024-02-15T14:13:33.671Z,8.49
2024-02-15T14:18:36.063Z,8.44
2024-02-15T14:23:38.235Z,8.46
2024-02-15T14:28:43.438Z,8.50
2024-02-15T14:33:45.129Z,8.48
2024-02-15T14:38:48.012Z,8.38
2024-02-15T14:43:49.754Z,8.22
2024-02-15T14:48:51.362Z,8.13
2024-02-15T14:53:52.960Z,8.11
2024-02-15T14:58:56.198Z,8.04
2024-02-15T15:03:59.275Z,7.96
2024-02-15T15:09:19.883Z,7.88
2024-02-15T15:14:21.669Z,7.78
2024-02-15T15:19:23.382Z,7.67
2024-02-15T15:24:25.216Z,7.59
2024-02-15T15:29:28.313Z,7.54
2024-02-15T15:34:31.215Z,7.48
2024-02-15T15:39:35.680Z,7.42
2024-02-15T15:44:38.117Z,7.38
2024-02-15T15:49:40.523Z,7.39
2024-02-15T15:54:42.150Z,7.35
2024-02-15T15:59:44.840Z,7.31
2024-02-15T16:04:48.337Z,7.30
2024-02-15T16:09:51.004Z,7.31
2024-02-15T16:14:52.667Z,7.30
2024-02-15T16:19:54.292Z,7.29
2024-02-15T16:24:56.001Z,7.28
2024-02-15T16:29:57.538Z,7.26
2024-02-15T16:35:03.697Z,7.24
2024-02-15T16:40:09.396Z,7.21
2024-02-15T16:45:13.236Z,7.19
2024-02-15T16:50:15.139Z,7.21
2024-02-15T16:55:18.317Z,7.22
2024-02-15T17:00:26.469Z,7.23
2024-02-15T17:05:29.393Z,7.22
2024-02-15T17:10:31.793Z,7.21
2024-02-15T17:15:38.497Z,7.21
2024-02-15T17:20:40.136Z,7.20
2024-02-15T17:25:41.804Z,7.19
2024-02-15T17:30:46.002Z,7.18
2024-02-15T17:35:50.654Z,7.20
2024-02-15T17:40:53.366Z,7.21
2024-02-15T17:45:55.145Z,7.20
2024-02-15T17:50:56.767Z,7.17
2024-02-15T17:56:00.930Z,7.14
2024-02-15T18:01:02.674Z,7.14
2024-02-15T18:06:04.833Z,7.13
2024-02-15T18:11:09.164Z,7.10
2024-02-15T18:16:12.911Z,7.09
2024-02-15T18:21:14.498Z,7.11
2024-02-15T18:26:16.276Z,7.09
2024-02-15T18:31:18.633Z,7.09
2024-02-15T18:36:20.326Z,7.10
2024-02-15T18:41:21.899Z,7.10
2024-02-15T18:46:23.496Z,7.12
2024-02-15T18:51:26.904Z,7.12
2024-02-15T18:56:28.479Z,7.10
2024-02-15T19:01:30.072Z,7.09
2024-02-15T19:06:41.263Z,7.06
2024-02-15T19:11:43.130Z,7.08
2024-02-15T19:16:48.504Z,7.08
2024-02-15T19:21:50.581Z,7.06
2024-02-15T19:26:52.343Z,7.04
2024-02-15T19:31:54.148Z,7.04
2024-02-15T19:37:04.362Z,7.03
2024-02-15T19:42:09.839Z,7.02
2024-02-15T19:47:13.587Z,7.01
2024-02-15T19:52:16.883Z,7.01
2024-02-15T19:57:18.669Z,7.01
2024-02-15T20:02:20.441Z,7.02
2024-02-15T20:07:29.608Z,7.01
2024-02-15T20:12:35.495Z,7.02
2024-02-15T20:17:37.892Z,6.99
2024-02-15T20:22:42.657Z,6.99
2024-02-15T20:27:44.912Z,6.99
2024-02-15T20:32:46.812Z,6.99
2024-02-15T20:37:48.422Z,6.97
2024-02-15T20:42:50.038Z,6.95
2024-02-15T20:47:51.743Z,6.93
2024-02-15T20:52:53.588Z,6.88
2024-02-15T20:57:55.187Z,6.80
2024-02-15T21:02:56.816Z,6.71
2024-02-15T21:07:59.479Z,6.63
2024-02-15T21:13:01.649Z,6.56
2024-02-15T21:18:03.426Z,6.51
2024-02-15T21:23:06.843Z,6.49
2024-02-15T21:28:09.187Z,6.46
2024-02-15T21:33:11.214Z,6.45
2024-02-15T21:38:12.910Z,6.49
2024-02-15T21:43:14.594Z,6.53
2024-02-15T21:48:16.287Z,6.56
2024-02-15T21:53:18.786Z,6.58
2024-02-15T21:58:20.439Z,6.58
2024-02-15T22:03:23.947Z,6.57
2024-02-15T22:08:25.622Z,6.58
2024-02-15T22:13:27.163Z,6.59
2024-02-15T22:18:29.026Z,6.60
2024-02-15T22:23:32.019Z,6.62
2024-02-15T22:28:33.658Z,6.61
2024-02-15T22:33:35.642Z,6.62
2024-02-15T22:38:37.330Z,6.63
2024-02-15T22:43:38.918Z,6.63
2024-02-15T22:48:42.638Z,6.64
2024-02-15T22:53:45.738Z,6.65
2024-02-15T22:58:47.397Z,6.66
2024-02-15T23:03:48.933Z,6.62
2024-02-15T23:08:50.550Z,6.62
2024-02-15T23:13:52.285Z,6.63
2024-02-15T23:18:53.943Z,6.62
2024-02-15T23:23:57.312Z,6.63
2024-02-15T23:28:59.389Z,6.62
2024-02-15T23:34:01.145Z,6.62
2024-02-15T23:39:21.645Z,6.63
2024-02-15T23:44:34.636Z,6.65
2024-02-15T23:49:37.013Z,6.67
2024-02-15T23:54:39.391Z,6.65
2024-02-15T23:59:41.073Z,6.66
